createdAt,value
2017-10-11T00:00:00.839Z,100705
2017-10-11T00:02:30.012Z,100697
2017-10-11T00:04:58.478Z,100700
2017-10-11T00:07:27.315Z,100692
2017-10-11T00:09:56.414Z,100698
2017-10-11T00:12:24.896Z,100692
2017-10-11T00:14:53.823Z,100691
2017-10-11T00:17:23.311Z,100691
2017-10-11T00:19:51.899Z,100689
2017-10-11T00:22:20.975Z,100688
2017-10-11T00:24:49.552Z,100691
2017-10-11T00:27:18.147Z,100686
2017-10-11T00:29:46.684Z,100693
2017-10-11T00:32:16.635Z,100699
2017-10-11T00:34:45.369Z,100688
2017-10-11T00:37:14.671Z,100699
2017-10-11T00:39:44.119Z,100696
2017-10-11T00:42:13.111Z,100685
2017-10-11T00:44:41.452Z,100684
2017-10-11T00:47:09.922Z,100690
2017-10-11T00:49:38.671Z,100695
2017-10-11T00:52:07.053Z,100692
2017-10-11T00:54:35.703Z,100686
2017-10-11T00:57:05.404Z,100691
2017-10-11T00:59:34.522Z,100693
2017-10-11T01:02:03.495Z,100691
2017-10-11T01:04:31.845Z,100680
2017-10-11T01:07:01.426Z,100686
2017-10-11T01:09:30.160Z,100678
2017-10-11T01:11:59.047Z,100675
2017-10-11T01:14:27.659Z,100674
2017-10-11T01:16:56.101Z,100676
2017-10-11T01:19:25.575Z,100676
2017-10-11T01:21:54.951Z,100678
2017-10-11T01:24:23.988Z,100679
2017-10-11T01:26:52.982Z,100677
2017-10-11T01:29:21.787Z,100678
2017-10-11T01:31:51.399Z,100681
2017-10-11T01:34:20.271Z,100677
2017-10-11T01:36:49.382Z,100680
2017-10-11T01:39:17.891Z,100675
2017-10-11T01:41:46.679Z,100676
2017-10-11T01:44:15.339Z,100677
2017-10-11T01:46:44.568Z,100677
2017-10-11T01:49:13.243Z,100680
2017-10-11T01:51:41.628Z,100672
2017-10-11T01:54:10.808Z,100667
2017-10-11T01:56:39.830Z,100681
2017-10-11T01:59:08.258Z,100678
2017-10-11T02:01:37.023Z,100672
2017-10-11T02:04:05.806Z,100655
2017-10-11T02:06:34.355Z,100675
2017-10-11T02:09:02.968Z,100674
2017-10-11T02:11:31.559Z,100660
2017-10-11T02:14:00.112Z,100667
2017-10-11T02:16:29.134Z,100662
2017-10-11T02:18:58.025Z,100655
2017-10-11T02:21:26.712Z,100655
2017-10-11T02:23:55.439Z,100655
2017-10-11T02:26:25.027Z,100652
2017-10-11T02:28:53.979Z,100644
2017-10-11T02:31:22.423Z,100647
2017-10-11T02:33:51.327Z,100648
2017-10-11T02:36:20.264Z,100665
2017-10-11T02:38:49.306Z,100649
2017-10-11T02:41:18.027Z,100651
2017-10-11T02:43:46.728Z,100655
2017-10-11T02:46:15.091Z,100653
2017-10-11T02:48:43.447Z,100663
2017-10-11T02:51:11.909Z,100649
2017-10-11T02:53:40.584Z,100649
2017-10-11T02:56:10.067Z,100642
2017-10-11T02:58:38.671Z,100646
2017-10-11T03:01:08.124Z,100643
2017-10-11T03:03:36.424Z,100657
2017-10-11T03:06:04.835Z,100651
2017-10-11T03:08:33.559Z,100654
2017-10-11T03:11:02.431Z,100648
2017-10-11T03:13:31.372Z,100653
2017-10-11T03:16:00.071Z,100638
2017-10-11T03:18:28.673Z,100647
2017-10-11T03:20:57.531Z,100645
2017-10-11T03:23:26.120Z,100637
2017-10-11T03:25:54.763Z,100639
2017-10-11T03:28:23.187Z,100649
2017-10-11T03:30:51.521Z,100624
2017-10-11T03:33:20.259Z,100642
2017-10-11T03:35:50.015Z,100642
2017-10-11T03:38:18.623Z,100636
2017-10-11T03:40:47.661Z,100633
2017-10-11T03:43:15.959Z,100631
2017-10-11T03:45:45.147Z,100632
2017-10-11T03:48:13.761Z,100634
2017-10-11T03:50:42.290Z,100631
2017-10-11T03:53:11.042Z,100628
2017-10-11T03:55:39.409Z,100617
2017-10-11T03:58:08.299Z,100621
2017-10-11T04:00:38.606Z,100618
2017-10-11T04:03:07.438Z,100619
2017-10-11T04:05:35.983Z,100630
2017-10-11T04:08:04.671Z,100626
2017-10-11T04:10:33.132Z,100624
2017-10-11T04:13:01.876Z,100629
2017-10-11T04:15:30.889Z,100626
2017-10-11T04:17:59.515Z,100620
2017-10-11T04:20:28.577Z,100616
2017-10-11T04:23:01.715Z,100616
2017-10-11T04:25:30.511Z,100619
2017-10-11T04:27:59.091Z,100619
2017-10-11T04:30:27.779Z,100621
2017-10-11T04:32:56.161Z,100621
2017-10-11T04:35:24.763Z,100617
2017-10-11T04:37:53.330Z,100610
2017-10-11T04:40:22.111Z,100618
2017-10-11T04:42:50.727Z,100620
2017-10-11T04:45:19.132Z,100613
2017-10-11T04:47:48.584Z,100609
2017-10-11T04:50:17.019Z,100606
2017-10-11T04:52:45.650Z,100604
2017-10-11T04:55:13.944Z,100597
2017-10-11T04:57:43.032Z,100600
2017-10-11T05:00:11.500Z,100599
2017-10-11T05:02:40.191Z,100605
2017-10-11T05:05:09.527Z,100604
2017-10-11T05:07:38.489Z,100610
2017-10-11T05:10:06.860Z,100602
2017-10-11T05:12:35.583Z,100610
2017-10-11T05:15:04.151Z,100611
2017-10-11T05:17:32.683Z,100609
2017-10-11T05:20:01.376Z,100609
2017-10-11T05:22:30.699Z,100608
2017-10-11T05:24:59.399Z,100610
2017-10-11T05:27:27.907Z,100609
2017-10-11T05:29:56.975Z,100603
2017-10-11T05:32:25.661Z,100598
2017-10-11T05:34:54.391Z,100611
2017-10-11T05:37:23.255Z,100606
2017-10-11T05:39:52.108Z,100616
2017-10-11T05:42:20.852Z,100618
2017-10-11T05:44:50.659Z,100625
2017-10-11T05:47:19.211Z,100621
2017-10-11T05:49:47.789Z,100614
2017-10-11T05:52:17.433Z,100618
2017-10-11T05:54:46.585Z,100615
2017-10-11T05:57:15.418Z,100614
2017-10-11T05:59:44.340Z,100613
2017-10-11T06:02:13.470Z,100617
2017-10-11T06:04:56.958Z,100610
2017-10-11T06:07:26.947Z,100622
2017-10-11T06:09:55.723Z,100622
2017-10-11T06:12:24.291Z,100625
2017-10-11T06:14:53.489Z,100621
2017-10-11T06:17:22.278Z,100619
2017-10-11T06:19:51.190Z,100618
2017-10-11T06:22:20.387Z,100615
2017-10-11T06:24:48.987Z,100612
2017-10-11T06:27:17.325Z,100606
2017-10-11T06:29:45.755Z,100620
2017-10-11T06:32:14.171Z,100619
2017-10-11T06:34:43.667Z,100609
2017-10-11T06:37:12.607Z,100607
2017-10-11T06:39:41.139Z,100613
2017-10-11T06:42:10.316Z,100602
2017-10-11T06:44:40.536Z,100607
2017-10-11T06:47:08.935Z,100603
2017-10-11T06:49:37.247Z,100612
2017-10-11T06:52:05.560Z,100596
2017-10-11T06:54:34.414Z,100605
2017-10-11T06:57:02.883Z,100606
2017-10-11T06:59:31.366Z,100606
2017-10-11T07:02:00.359Z,100605
2017-10-11T07:04:34.434Z,100614
2017-10-11T07:07:03.443Z,100623
2017-10-11T07:09:32.570Z,100613
2017-10-11T07:12:01.223Z,100618
2017-10-11T07:14:30.054Z,100623
2017-10-11T07:16:58.536Z,100623
2017-10-11T07:19:27.050Z,100623
2017-10-11T07:21:55.711Z,100635
2017-10-11T07:24:24.471Z,100628
2017-10-11T07:26:53.536Z,100629
2017-10-11T07:29:22.378Z,100637
2017-10-11T07:31:51.239Z,100633
2017-10-11T07:34:20.086Z,100640
2017-10-11T07:36:48.757Z,100647
2017-10-11T07:39:17.380Z,100651
2017-10-11T07:41:46.215Z,100656
2017-10-11T07:44:15.642Z,100650
2017-10-11T07:46:44.551Z,100649
2017-10-11T07:49:14.143Z,100649
2017-10-11T07:51:42.859Z,100646
2017-10-11T07:54:11.502Z,100654
2017-10-11T07:56:40.444Z,100653
2017-10-11T07:59:09.555Z,100652
2017-10-11T08:01:38.892Z,100660
2017-10-11T08:04:07.932Z,100659
2017-10-11T08:06:36.805Z,100656
2017-10-11T08:09:05.975Z,100658
2017-10-11T08:11:34.841Z,100658
2017-10-11T08:14:03.651Z,100653
2017-10-11T08:16:32.291Z,100655
2017-10-11T08:19:01.027Z,100664
2017-10-11T08:21:29.916Z,100673
2017-10-11T08:23:58.807Z,100670
2017-10-11T08:26:27.360Z,100672
2017-10-11T08:28:56.825Z,100685
2017-10-11T08:31:25.700Z,100676
2017-10-11T08:33:54.774Z,100668
2017-10-11T08:36:23.628Z,100674
2017-10-11T08:38:53.708Z,100668
2017-10-11T08:41:22.394Z,100672
2017-10-11T08:43:50.951Z,100667
2017-10-11T08:46:19.387Z,100676
2017-10-11T08:48:47.681Z,100671
2017-10-11T08:51:17.306Z,100671
2017-10-11T08:53:46.107Z,100676
2017-10-11T08:56:15.015Z,100664
2017-10-11T08:58:43.699Z,100662
2017-10-11T09:01:12.663Z,100671
2017-10-11T09:03:42.475Z,100668
2017-10-11T09:06:11.176Z,100676
2017-10-11T09:08:39.524Z,100667
2017-10-11T09:11:08.993Z,100679
2017-10-11T09:13:37.655Z,100669
2017-10-11T09:16:06.751Z,100679
2017-10-11T09:18:35.347Z,100671
2017-10-11T09:21:04.295Z,100677
2017-10-11T09:23:33.007Z,100680
2017-10-11T09:26:02.387Z,100685
2017-10-11T09:28:30.947Z,100686
2017-10-11T09:31:00.132Z,100674
2017-10-11T09:33:28.806Z,100689
2017-10-11T09:35:57.291Z,100681
2017-10-11T09:38:25.973Z,100682
2017-10-11T09:40:54.429Z,100680
2017-10-11T09:43:23.082Z,100682
2017-10-11T09:45:52.691Z,100690
2017-10-11T09:48:22.767Z,100678
2017-10-11T09:50:51.486Z,100690
2017-10-11T09:53:20.984Z,100683
2017-10-11T09:55:50.471Z,100687
2017-10-11T09:58:19.150Z,100676
2017-10-11T10:00:47.771Z,100676
2017-10-11T10:03:16.318Z,100679
2017-10-11T10:05:45.071Z,100672
2017-10-11T10:08:13.374Z,100679
2017-10-11T10:10:41.935Z,100689
2017-10-11T10:13:10.616Z,100682
2017-10-11T10:15:39.084Z,100683
2017-10-11T10:18:07.992Z,100691
2017-10-11T10:20:37.046Z,100691
2017-10-11T10:23:05.603Z,100689
2017-10-11T10:25:34.040Z,100695
2017-10-11T10:28:02.616Z,100688
2017-10-11T10:30:31.675Z,100687
2017-10-11T10:33:00.409Z,100684
2017-10-11T10:35:28.807Z,100688
2017-10-11T10:37:57.527Z,100685
2017-10-11T10:40:26.083Z,100697
2017-10-11T10:42:54.554Z,100689
2017-10-11T10:45:22.964Z,100684
2017-10-11T10:47:51.323Z,100701
2017-10-11T10:50:20.024Z,100694
2017-10-11T10:52:48.784Z,100691
2017-10-11T10:55:17.177Z,100697
2017-10-11T10:57:45.991Z,100703
2017-10-11T11:00:14.443Z,100699
2017-10-11T11:02:43.472Z,100704
2017-10-11T11:05:12.122Z,100692
2017-10-11T11:07:40.511Z,100711
2017-10-11T11:10:08.813Z,100708
2017-10-11T11:12:37.376Z,100702
2017-10-11T11:15:05.771Z,100703
2017-10-11T11:17:34.362Z,100701
2017-10-11T11:20:03.199Z,100710
2017-10-11T11:22:31.617Z,100705
2017-10-11T11:24:59.936Z,100706
2017-10-11T11:27:28.624Z,100699
2017-10-11T11:29:58.319Z,100705
2017-10-11T11:32:27.047Z,100691
2017-10-11T11:34:55.671Z,100698
2017-10-11T11:37:24.547Z,100705
2017-10-11T11:39:52.895Z,100706
2017-10-11T11:42:21.518Z,100700
2017-10-11T11:44:50.191Z,100691
2017-10-11T11:47:19.452Z,100699
2017-10-11T11:49:47.974Z,100696
2017-10-11T11:52:16.267Z,100694
2017-10-11T11:54:44.955Z,100688
2017-10-11T11:57:14.178Z,100689
2017-10-11T11:59:42.559Z,100693
2017-10-11T12:02:11.200Z,100697
2017-10-11T12:04:40.127Z,100690
2017-10-11T12:07:09.802Z,100688
2017-10-11T12:09:38.296Z,100697
2017-10-11T12:12:07.156Z,100694
2017-10-11T12:14:35.819Z,100694
2017-10-11T12:17:04.327Z,100701
2017-10-11T12:19:33.246Z,100693
2017-10-11T12:22:01.682Z,100688
2017-10-11T12:24:30.460Z,100682
2017-10-11T12:26:58.895Z,100690
2017-10-11T12:29:27.343Z,100694
2017-10-11T12:31:55.668Z,100687
2017-10-11T12:34:24.234Z,100682
2017-10-11T12:36:52.975Z,100685
2017-10-11T12:39:21.699Z,100696
2017-10-11T12:41:50.363Z,100704
2017-10-11T12:44:19.464Z,100687
2017-10-11T12:46:48.558Z,100692
2017-10-11T12:49:17.071Z,100692
2017-10-11T12:51:45.371Z,100688
2017-10-11T12:54:13.934Z,100691
2017-10-11T12:56:42.496Z,100699
2017-10-11T12:59:10.970Z,100700
2017-10-11T13:01:39.709Z,100694
2017-10-11T13:04:09.324Z,100702
2017-10-11T13:06:37.873Z,100697
2017-10-11T13:09:06.705Z,100702
2017-10-11T13:11:35.403Z,100686
2017-10-11T13:14:03.942Z,100685
2017-10-11T13:16:32.391Z,100689
2017-10-11T13:19:01.269Z,100694
2017-10-11T13:21:30.027Z,100702
2017-10-11T13:23:59.542Z,100705
2017-10-11T13:26:28.772Z,100699
2017-10-11T13:28:57.119Z,100701
2017-10-11T13:31:26.879Z,100692
2017-10-11T13:33:55.276Z,100701
2017-10-11T13:36:24.258Z,100705
2017-10-11T13:38:53.019Z,100705
2017-10-11T13:41:22.123Z,100700
2017-10-11T13:43:50.432Z,100696
2017-10-11T13:46:19.288Z,100697
2017-10-11T13:48:47.804Z,100698
2017-10-11T13:51:16.342Z,100695
2017-10-11T13:53:45.015Z,100688
2017-10-11T13:56:13.656Z,100692
2017-10-11T13:58:42.337Z,100686
2017-10-11T14:01:11.103Z,100681
2017-10-11T14:03:39.409Z,100683
2017-10-11T14:06:08.045Z,100686
2017-10-11T14:08:36.864Z,100689
2017-10-11T14:11:05.336Z,100686
2017-10-11T14:13:33.670Z,100678
2017-10-11T14:16:03.134Z,100683
2017-10-11T14:18:31.688Z,100684
2017-10-11T14:21:00.513Z,100686
2017-10-11T14:23:29.403Z,100689
2017-10-11T14:25:58.090Z,100684
2017-10-11T14:28:27.589Z,100685
2017-10-11T14:30:56.275Z,100687
2017-10-11T14:33:24.880Z,100686
2017-10-11T14:35:53.537Z,100694
2017-10-11T14:38:22.094Z,100690
2017-10-11T14:40:50.515Z,100690
2017-10-11T14:43:19.684Z,100679
2017-10-11T14:45:48.171Z,100685
2017-10-11T14:48:16.675Z,100686
2017-10-11T14:50:45.071Z,100674
2017-10-11T14:53:14.016Z,100680
2017-10-11T14:55:42.596Z,100686
2017-10-11T14:58:10.971Z,100682
2017-10-11T15:00:40.210Z,100682
2017-10-11T15:03:09.011Z,100675
2017-10-11T15:05:37.565Z,100679
2017-10-11T15:08:06.021Z,100674
2017-10-11T15:10:34.454Z,100669
2017-10-11T15:13:02.951Z,100669
2017-10-11T15:15:31.611Z,100670
2017-10-11T15:18:01.740Z,100659
2017-10-11T15:20:30.417Z,100678
2017-10-11T15:22:59.074Z,100676
2017-10-11T15:25:27.591Z,100671
2017-10-11T15:27:56.283Z,100667
2017-10-11T15:30:24.727Z,100673
2017-10-11T15:32:53.110Z,100665
2017-10-11T15:35:21.626Z,100673
2017-10-11T15:37:50.476Z,100682
2017-10-11T15:40:19.366Z,100678
2017-10-11T15:42:48.111Z,100676
2017-10-11T15:45:16.411Z,100680
2017-10-11T15:47:45.626Z,100671
2017-10-11T15:50:14.291Z,100674
2017-10-11T15:52:43.215Z,100677
2017-10-11T15:55:12.486Z,100675
2017-10-11T15:57:41.563Z,100673
2017-10-11T16:00:09.855Z,100675
2017-10-11T16:02:38.563Z,100659
2017-10-11T16:05:07.175Z,100667
2017-10-11T16:07:36.059Z,100662
2017-10-11T16:10:04.415Z,100666
2017-10-11T16:12:33.136Z,100672
2017-10-11T16:15:01.838Z,100674
2017-10-11T16:17:30.480Z,100668
2017-10-11T16:19:58.820Z,100659
2017-10-11T16:22:28.450Z,100672
2017-10-11T16:24:57.155Z,100662
2017-10-11T16:27:25.647Z,100663
2017-10-11T16:29:54.283Z,100665
2017-10-11T16:32:23.331Z,100662
2017-10-11T16:34:51.895Z,100664
2017-10-11T16:37:20.522Z,100665
2017-10-11T16:39:49.224Z,100664
2017-10-11T16:42:18.171Z,100663
2017-10-11T16:44:46.810Z,100667
2017-10-11T16:47:15.326Z,100665
2017-10-11T16:49:43.854Z,100667
2017-10-11T16:52:13.166Z,100667
2017-10-11T16:54:41.983Z,100662
2017-10-11T16:57:10.921Z,100672
2017-10-11T16:59:40.121Z,100659
2017-10-11T17:02:08.994Z,100674
2017-10-11T17:04:37.864Z,100663
2017-10-11T17:07:07.158Z,100667
2017-10-11T17:09:36.219Z,100674
2017-10-11T17:12:05.294Z,100676
2017-10-11T17:14:34.350Z,100681
2017-10-11T17:17:02.863Z,100670
2017-10-11T17:19:31.452Z,100675
2017-10-11T17:22:00.243Z,100670
2017-10-11T17:24:29.043Z,100671
2017-10-11T17:26:57.611Z,100677
2017-10-11T17:29:26.767Z,100673
2017-10-11T17:31:55.469Z,100671
2017-10-11T17:34:24.051Z,100669
2017-10-11T17:36:52.984Z,100676
2017-10-11T17:39:21.831Z,100670
2017-10-11T17:41:51.352Z,100680
2017-10-11T17:44:19.856Z,100674
2017-10-11T17:46:48.761Z,100665
2017-10-11T17:49:17.432Z,100667
2017-10-11T17:51:46.323Z,100668
2017-10-11T17:54:14.762Z,100664
2017-10-11T17:56:43.802Z,100665
2017-10-11T17:59:12.419Z,100662
2017-10-11T18:01:41.170Z,100677
2017-10-11T18:04:10.595Z,100666
2017-10-11T18:06:39.158Z,100662
2017-10-11T18:09:07.712Z,100668
2017-10-11T18:11:36.535Z,100669
2017-10-11T18:14:05.731Z,100661
2017-10-11T18:16:34.515Z,100668
2017-10-11T18:19:03.126Z,100663
2017-10-11T18:21:31.991Z,100653
2017-10-11T18:24:00.511Z,100663
2017-10-11T18:26:29.842Z,100661
2017-10-11T18:28:58.147Z,100666
2017-10-11T18:31:26.661Z,100657
2017-10-11T18:33:55.663Z,100642
2017-10-11T18:36:24.924Z,100655
2017-10-11T18:38:53.824Z,100660
2017-10-11T18:41:22.635Z,100666
2017-10-11T18:43:51.054Z,100651
2017-10-11T18:46:19.950Z,100664
2017-10-11T18:48:48.311Z,100662
2017-10-11T18:51:16.731Z,100660
2017-10-11T18:53:45.048Z,100663
2017-10-11T18:56:13.690Z,100656
2017-10-11T18:58:42.289Z,100663
2017-10-11T19:01:11.459Z,100663
2017-10-11T19:03:40.231Z,100653
2017-10-11T19:06:09.795Z,100658
2017-10-11T19:08:38.242Z,100651
2017-10-11T19:11:06.568Z,100651
2017-10-11T19:13:36.423Z,100655
2017-10-11T19:16:05.132Z,100655
2017-10-11T19:18:33.487Z,100657
2017-10-11T19:21:02.202Z,100656
2017-10-11T19:23:31.047Z,100652
2017-10-11T19:25:59.535Z,100650
2017-10-11T19:28:28.346Z,100649
2017-10-11T19:30:57.386Z,100656
2017-10-11T19:33:25.665Z,100646
2017-10-11T19:35:54.423Z,100645
2017-10-11T19:38:22.748Z,100651
2017-10-11T19:40:52.715Z,100650
2017-10-11T19:43:21.202Z,100643
2017-10-11T19:45:50.115Z,100654
2017-10-11T19:48:19.076Z,100647
2017-10-11T19:50:47.687Z,100645
2017-10-11T19:53:16.806Z,100644
2017-10-11T19:55:46.244Z,100633
2017-10-11T19:58:15.011Z,100641
2017-10-11T20:00:44.244Z,100634
2017-10-11T20:03:12.832Z,100626
2017-10-11T20:05:41.735Z,100627
2017-10-11T20:08:10.399Z,100619
2017-10-11T20:10:38.803Z,100622
2017-10-11T20:13:07.777Z,100625
2017-10-11T20:15:36.107Z,100618
2017-10-11T20:18:04.739Z,100598
2017-10-11T20:20:34.424Z,100596
2017-10-11T20:23:03.009Z,100589
2017-10-11T20:25:31.820Z,100582
2017-10-11T20:28:00.835Z,100590
2017-10-11T20:30:29.914Z,100577
2017-10-11T20:32:58.570Z,100571
2017-10-11T20:35:27.600Z,100580
2017-10-11T20:37:56.894Z,100576
2017-10-11T20:40:25.983Z,100594
2017-10-11T20:42:54.980Z,100590
2017-10-11T20:45:24.309Z,100586
2017-10-11T20:47:53.226Z,100596
2017-10-11T20:50:22.722Z,100586
2017-10-11T20:52:51.958Z,100577
2017-10-11T20:55:21.243Z,100576
2017-10-11T20:57:49.956Z,100578
2017-10-11T21:00:18.345Z,100571
2017-10-11T21:02:47.165Z,100569
2017-10-11T21:05:16.254Z,100566
2017-10-11T21:07:44.986Z,100567
2017-10-11T21:10:13.319Z,100578
2017-10-11T21:12:42.296Z,100567
2017-10-11T21:15:11.188Z,100557
2017-10-11T21:17:40.290Z,100570
2017-10-11T21:20:08.976Z,100558
2017-10-11T21:22:37.437Z,100560
2017-10-11T21:25:06.773Z,100556
2017-10-11T21:27:35.205Z,100551
2017-10-11T21:30:04.680Z,100554
2017-10-11T21:32:33.259Z,100550
2017-10-11T21:35:01.765Z,100542
2017-10-11T21:37:30.376Z,100559
2017-10-11T21:40:00.855Z,100549
2017-10-11T21:42:30.487Z,100548
2017-10-11T21:44:59.139Z,100542
2017-10-11T21:47:27.511Z,100552
2017-10-11T21:49:56.199Z,100542
2017-10-11T21:52:26.575Z,100547
2017-10-11T21:54:55.587Z,100532
2017-10-11T21:57:23.963Z,100535
2017-10-11T21:59:52.919Z,100543
2017-10-11T22:02:21.459Z,100540
2017-10-11T22:04:49.834Z,100534
2017-10-11T22:07:18.696Z,100539
2017-10-11T22:09:47.334Z,100534
2017-10-11T22:12:16.091Z,100525
2017-10-11T22:14:44.792Z,100528
2017-10-11T22:17:13.895Z,100539
2017-10-11T22:19:43.361Z,100523
2017-10-11T22:22:12.232Z,100526
2017-10-11T22:24:41.979Z,100520
2017-10-11T22:27:10.847Z,100511
2017-10-11T22:29:40.153Z,100513
2017-10-11T22:32:08.803Z,100506
2017-10-11T22:34:37.127Z,100503
2017-10-11T22:37:05.811Z,100509
2017-10-11T22:39:34.835Z,100498
2017-10-11T22:42:03.614Z,100497
2017-10-11T22:44:32.470Z,100497
2017-10-11T22:47:01.201Z,100492
2017-10-11T22:49:30.054Z,100488
2017-10-11T22:51:58.862Z,100493
2017-10-11T22:54:28.040Z,100485
2017-10-11T22:56:56.679Z,100483
2017-10-11T22:59:25.135Z,100484
2017-10-11T23:01:54.561Z,100460
2017-10-11T23:04:23.096Z,100469
2017-10-11T23:06:51.683Z,100469
2017-10-11T23:09:20.542Z,100462
2017-10-11T23:11:48.847Z,100453
2017-10-11T23:14:17.507Z,100451
2017-10-11T23:16:46.652Z,100455
2017-10-11T23:19:15.920Z,100445
2017-10-11T23:21:45.027Z,100448
2017-10-11T23:24:13.711Z,100446
2017-10-11T23:26:42.367Z,100441
2017-10-11T23:29:11.699Z,100435
2017-10-11T23:31:40.147Z,100442
2017-10-11T23:34:08.626Z,100437
2017-10-11T23:36:37.495Z,100437
2017-10-11T23:39:06.846Z,100425
2017-10-11T23:41:36.015Z,100422
2017-10-11T23:44:05.414Z,100422
2017-10-11T23:46:33.927Z,100416
2017-10-11T23:49:02.736Z,100418
2017-10-11T23:51:31.304Z,100413
2017-10-11T23:53:59.751Z,100407
2017-10-11T23:56:28.254Z,100398
2017-10-11T23:58:56.761Z,100398
